sensor_id;sensor_type;location;lat;lon;timestamp;pressure;altitude;pressure_sealevel;temperature
71630;BMP280;59479;51.902;8.212;2023-05-10T00:02:22;100089.19;;;17.43
71630;BMP280;59479;51.902;8.212;2023-05-10T00:04:47;100091.78;;;17.41
71630;BMP280;59479;51.902;8.212;2023-05-10T00:07:13;100088.34;;;17.42
71630;BMP280;59479;51.902;8.212;2023-05-10T00:09:38;100097.69;;;17.42
71630;BMP280;59479;51.902;8.212;2023-05-10T00:12:04;100090.06;;;17.42
71630;BMP280;59479;51.902;8.212;2023-05-10T00:14:29;100093.28;;;17.47
71630;BMP280;59479;51.902;8.212;2023-05-10T00:16:55;100091.78;;;17.41
71630;BMP280;59479;51.902;8.212;2023-05-10T00:19:20;100081.69;;;17.40
71630;BMP280;59479;51.902;8.212;2023-05-10T00:21:45;100093.38;;;17.44
71630;BMP280;59479;51.902;8.212;2023-05-10T00:24:11;100086.66;;;17.43
71630;BMP280;59479;51.902;8.212;2023-05-10T00:26:36;100090.00;;;17.43
71630;BMP280;59479;51.902;8.212;2023-05-10T00:29:02;100080.00;;;17.39
71630;BMP280;59479;51.902;8.212;2023-05-10T00:31:27;100082.66;;;17.36
71630;BMP280;59479;51.902;8.212;2023-05-10T00:33:52;100081.97;;;17.31
71630;BMP280;59479;51.902;8.212;2023-05-10T00:36:18;100079.44;;;17.31
71630;BMP280;59479;51.902;8.212;2023-05-10T00:38:43;100079.44;;;17.31
71630;BMP280;59479;51.902;8.212;2023-05-10T00:41:08;100077.72;;;17.33
71630;BMP280;59479;51.902;8.212;2023-05-10T00:43:34;100081.00;;;17.35
71630;BMP280;59479;51.902;8.212;2023-05-10T00:45:59;100074.38;;;17.31
71630;BMP280;59479;51.902;8.212;2023-05-10T00:48:25;100082.84;;;17.31
71630;BMP280;59479;51.902;8.212;2023-05-10T00:50:50;100071.28;;;17.23
71630;BMP280;59479;51.902;8.212;2023-05-10T00:53:16;100079.72;;;17.24
71630;BMP280;59479;51.902;8.212;2023-05-10T00:55:42;100077.91;;;17.27
71630;BMP280;59479;51.902;8.212;2023-05-10T00:58:07;100084.66;;;17.28
71630;BMP280;59479;51.902;8.212;2023-05-10T01:00:33;100081.25;;;17.27
71630;BMP280;59479;51.902;8.212;2023-05-10T01:02:59;100073.13;;;17.20
71630;BMP280;59479;51.902;8.212;2023-05-10T01:05:25;100071.81;;;17.31
71630;BMP280;59479;51.902;8.212;2023-05-10T01:07:52;100075.47;;;17.24
71630;BMP280;59479;51.902;8.212;2023-05-10T01:10:18;100068.75;;;17.23
71630;BMP280;59479;51.902;8.212;2023-05-10T01:12:45;100065.53;;;17.18
71630;BMP280;59479;51.902;8.212;2023-05-10T01:15:12;100080.84;;;17.15
71630;BMP280;59479;51.902;8.212;2023-05-10T01:17:39;100070.75;;;17.14
71630;BMP280;59479;51.902;8.212;2023-05-10T01:20:07;100074.09;;;17.14
71630;BMP280;59479;51.902;8.212;2023-05-10T01:26:13;100080.19;;;17.10
71630;BMP280;59479;51.902;8.212;2023-05-10T01:34:25;100073.91;;;16.96
71630;BMP280;59479;51.902;8.212;2023-05-10T01:37:09;100089.75;;;17.02
71630;BMP280;59479;51.902;8.212;2023-05-10T01:42:26;100087.22;;;17.02
71630;BMP280;59479;51.902;8.212;2023-05-10T01:44:58;100088.31;;;16.95
71630;BMP280;59479;51.902;8.212;2023-05-10T01:47:38;100087.53;;;16.93
71630;BMP280;59479;51.902;8.212;2023-05-10T01:50:09;100083.25;;;16.95
71630;BMP280;59479;51.902;8.212;2023-05-10T01:52:42;100086.66;;;16.94
71630;BMP280;59479;51.902;8.212;2023-05-10T01:55:14;100090.84;;;16.95
71630;BMP280;59479;51.902;8.212;2023-05-10T01:57:43;100094.59;;;16.85
71630;BMP280;59479;51.902;8.212;2023-05-10T02:00:10;100089.00;;;16.76
71630;BMP280;59479;51.902;8.212;2023-05-10T02:02:38;100088.94;;;16.78
71630;BMP280;59479;51.902;8.212;2023-05-10T02:05:08;100086.47;;;16.76
71630;BMP280;59479;51.902;8.212;2023-05-10T02:07:35;100086.56;;;16.73
71630;BMP280;59479;51.902;8.212;2023-05-10T02:10:02;100080.84;;;16.67
71630;BMP280;59479;51.902;8.212;2023-05-10T02:12:30;100083.72;;;16.58
71630;BMP280;59479;51.902;8.212;2023-05-10T02:14:57;100097.16;;;16.60
71630;BMP280;59479;51.902;8.212;2023-05-10T02:17:25;100097.81;;;16.66
71630;BMP280;59479;51.902;8.212;2023-05-10T02:19:51;100096.50;;;16.79
71630;BMP280;59479;51.902;8.212;2023-05-10T02:22:18;100094.72;;;16.57
71630;BMP280;59479;51.902;8.212;2023-05-10T02:24:44;100090.19;;;16.66
71630;BMP280;59479;51.902;8.212;2023-05-10T02:27:11;100089.34;;;16.66
71630;BMP280;59479;51.902;8.212;2023-05-10T02:29:37;100091.06;;;16.65
71630;BMP280;59479;51.902;8.212;2023-05-10T02:32:04;100103.69;;;16.67
71630;BMP280;59479;51.902;8.212;2023-05-10T02:34:30;100103.00;;;16.62
71630;BMP280;59479;51.902;8.212;2023-05-10T02:36:56;100099.69;;;16.60
71630;BMP280;59479;51.902;8.212;2023-05-10T02:39:22;100102.41;;;16.54
71630;BMP280;59479;51.902;8.212;2023-05-10T02:41:50;100099.75;;;16.58
71630;BMP280;59479;51.902;8.212;2023-05-10T02:44:18;100098.16;;;16.54
71630;BMP280;59479;51.902;8.212;2023-05-10T02:46:44;100108.38;;;16.53
71630;BMP280;59479;51.902;8.212;2023-05-10T02:49:09;100103.41;;;16.50
71630;BMP280;59479;51.902;8.212;2023-05-10T02:51:50;100108.38;;;16.53
71630;BMP280;59479;51.902;8.212;2023-05-10T02:54:20;100103.91;;;16.59
71630;BMP280;59479;51.902;8.212;2023-05-10T02:56:57;100103.44;;;16.48
71630;BMP280;59479;51.902;8.212;2023-05-10T02:59:22;100106.81;;;16.49
71630;BMP280;59479;51.902;8.212;2023-05-10T03:01:48;100103.81;;;16.38
71630;BMP280;59479;51.902;8.212;2023-05-10T03:04:13;100108.19;;;16.33
71630;BMP280;59479;51.902;8.212;2023-05-10T03:06:39;100109.13;;;16.29
71630;BMP280;59479;51.902;8.212;2023-05-10T03:09:04;100103.38;;;16.24
71630;BMP280;59479;51.902;8.212;2023-05-10T03:11:52;100100.16;;;16.18
71630;BMP280;59479;51.902;8.212;2023-05-10T03:14:39;100117.38;;;16.08
71630;BMP280;59479;51.902;8.212;2023-05-10T03:17:29;100114.94;;;16.05
71630;BMP280;59479;51.902;8.212;2023-05-10T03:19:57;100119.38;;;15.97
71630;BMP280;59479;51.902;8.212;2023-05-10T03:22:26;100122.94;;;15.92
71630;BMP280;59479;51.902;8.212;2023-05-10T03:24:55;100121.25;;;15.91
71630;BMP280;59479;51.902;8.212;2023-05-10T03:27:23;100129.41;;;15.73
71630;BMP280;59479;51.902;8.212;2023-05-10T03:29:50;100131.38;;;15.64
71630;BMP280;59479;51.902;8.212;2023-05-10T03:32:16;100130.31;;;15.71
71630;BMP280;59479;51.902;8.212;2023-05-10T03:34:42;100130.94;;;15.79
71630;BMP280;59479;51.902;8.212;2023-05-10T03:37:10;100132.84;;;15.71
71630;BMP280;59479;51.902;8.212;2023-05-10T03:39:36;100136.94;;;15.76
71630;BMP280;59479;51.902;8.212;2023-05-10T03:42:01;100134.66;;;15.67
71630;BMP280;59479;51.902;8.212;2023-05-10T03:44:26;100145.72;;;15.65
71630;BMP280;59479;51.902;8.212;2023-05-10T03:46:52;100150.00;;;15.63
71630;BMP280;59479;51.902;8.212;2023-05-10T03:49:17;100147.50;;;15.61
71630;BMP280;59479;51.902;8.212;2023-05-10T03:51:42;100147.50;;;15.61
71630;BMP280;59479;51.902;8.212;2023-05-10T03:54:08;100152.59;;;15.60
71630;BMP280;59479;51.902;8.212;2023-05-10T03:56:33;100158.72;;;15.53
71630;BMP280;59479;51.902;8.212;2023-05-10T03:58:58;100165.34;;;15.57
71630;BMP280;59479;51.902;8.212;2023-05-10T04:01:24;100165.50;;;15.51
71630;BMP280;59479;51.902;8.212;2023-05-10T04:03:49;100161.47;;;15.44
71630;BMP280;59479;51.902;8.212;2023-05-10T04:06:14;100162.94;;;15.53
71630;BMP280;59479;51.902;8.212;2023-05-10T04:08:40;100171.09;;;15.63
71630;BMP280;59479;51.902;8.212;2023-05-10T04:11:09;100170.38;;;15.58
71630;BMP280;59479;51.902;8.212;2023-05-10T04:13:35;100172.09;;;15.58
71630;BMP280;59479;51.902;8.212;2023-05-10T04:16:01;100175.63;;;15.51
71630;BMP280;59479;51.902;8.212;2023-05-10T04:18:26;100179.00;;;15.52
71630;BMP280;59479;51.902;8.212;2023-05-10T04:20:52;100178.13;;;15.53
71630;BMP280;59479;51.902;8.212;2023-05-10T04:23:17;100184.13;;;15.50
71630;BMP280;59479;51.902;8.212;2023-05-10T04:25:43;100187.59;;;15.46
71630;BMP280;59479;51.902;8.212;2023-05-10T04:28:08;100192.41;;;15.55
71630;BMP280;59479;51.902;8.212;2023-05-10T04:30:34;100184.88;;;15.54
71630;BMP280;59479;51.902;8.212;2023-05-10T04:33:00;100188.25;;;15.53
71630;BMP280;59479;51.902;8.212;2023-05-10T04:35:25;100191.56;;;15.54
71630;BMP280;59479;51.902;8.212;2023-05-10T04:37:51;100204.78;;;15.35
71630;BMP280;59479;51.902;8.212;2023-05-10T04:40:16;100199.63;;;15.38
71630;BMP280;59479;51.902;8.212;2023-05-10T04:42:42;100194.78;;;15.29
71630;BMP280;59479;51.902;8.212;2023-05-10T04:45:08;100192.91;;;15.37
71630;BMP280;59479;51.902;8.212;2023-05-10T04:47:34;100197.19;;;15.35
71630;BMP280;59479;51.902;8.212;2023-05-10T04:50:00;100196.97;;;15.43
71630;BMP280;59479;51.902;8.212;2023-05-10T04:52:25;100206.94;;;15.49
71630;BMP280;59479;51.902;8.212;2023-05-10T04:54:51;100210.44;;;15.45
71630;BMP280;59479;51.902;8.212;2023-05-10T04:57:16;100210.19;;;15.54
71630;BMP280;59479;51.902;8.212;2023-05-10T04:59:41;100218.53;;;15.57
71630;BMP280;59479;51.902;8.212;2023-05-10T05:02:07;100221.06;;;15.57
71630;BMP280;59479;51.902;8.212;2023-05-10T05:04:33;100211.75;;;15.57
71630;BMP280;59479;51.902;8.212;2023-05-10T05:06:58;100217.72;;;15.56
71630;BMP280;59479;51.902;8.212;2023-05-10T05:09:23;100223.63;;;15.55
71630;BMP280;59479;51.902;8.212;2023-05-10T05:11:48;100234.63;;;15.54
71630;BMP280;59479;51.902;8.212;2023-05-10T05:14:14;100240.91;;;15.42
71630;BMP280;59479;51.902;8.212;2023-05-10T05:16:39;100235.94;;;15.37
71630;BMP280;59479;51.902;8.212;2023-05-10T05:19:05;100243.28;;;15.46
71630;BMP280;59479;51.902;8.212;2023-05-10T05:21:30;100246.72;;;15.45
71630;BMP280;59479;51.902;8.212;2023-05-10T05:23:57;100250.03;;;15.47
71630;BMP280;59479;51.902;8.212;2023-05-10T05:26:22;100249.34;;;15.41
71630;BMP280;59479;51.902;8.212;2023-05-10T05:28:47;100248.47;;;15.43
71630;BMP280;59479;51.902;8.212;2023-05-10T05:31:13;100253.44;;;15.46
71630;BMP280;59479;51.902;8.212;2023-05-10T05:33:39;100255.97;;;15.46
71630;BMP280;59479;51.902;8.212;2023-05-10T05:36:05;100261.84;;;15.48
71630;BMP280;59479;51.902;8.212;2023-05-10T05:38:30;100252.72;;;15.41
71630;BMP280;59479;51.902;8.212;2023-05-10T05:40:56;100262.72;;;15.46
71630;BMP280;59479;51.902;8.212;2023-05-10T05:43:21;100257.75;;;15.43
71630;BMP280;59479;51.902;8.212;2023-05-10T05:45:47;100262.84;;;15.41
71630;BMP280;59479;51.902;8.212;2023-05-10T05:48:12;100262.72;;;15.46
71630;BMP280;59479;51.902;8.212;2023-05-10T05:50:37;100260.94;;;15.49
71630;BMP280;59479;51.902;8.212;2023-05-10T05:53:03;100269.34;;;15.51
71630;BMP280;59479;51.902;8.212;2023-05-10T05:55:28;100273.63;;;15.49
71630;BMP280;59479;51.902;8.212;2023-05-10T05:57:54;100265.13;;;15.52
71630;BMP280;59479;51.902;8.212;2023-05-10T06:00:20;100274.25;;;15.57
71630;BMP280;59479;51.902;8.212;2023-05-10T06:02:47;100273.25;;;15.62
71630;BMP280;59479;51.902;8.212;2023-05-10T06:05:12;100271.72;;;15.57
71630;BMP280;59479;51.902;8.212;2023-05-10T06:07:39;100278.38;;;15.61
71630;BMP280;59479;51.902;8.212;2023-05-10T06:10:07;100283.69;;;15.52
71630;BMP280;59479;51.902;8.212;2023-05-10T06:12:32;100286.78;;;15.63
71630;BMP280;59479;51.902;8.212;2023-05-10T06:14:58;100288.50;;;15.61
71630;BMP280;59479;51.902;8.212;2023-05-10T06:17:23;100288.44;;;15.64
71630;BMP280;59479;51.902;8.212;2023-05-10T06:19:49;100289.47;;;15.57
71630;BMP280;59479;51.902;8.212;2023-05-10T06:22:15;100299.34;;;15.66
71630;BMP280;59479;51.902;8.212;2023-05-10T06:24:40;100295.06;;;15.68
71630;BMP280;59479;51.902;8.212;2023-05-10T06:27:06;100290.06;;;15.66
71630;BMP280;59479;51.902;8.212;2023-05-10T06:29:31;100304.53;;;15.63
71630;BMP280;59479;51.902;8.212;2023-05-10T06:31:56;100310.81;;;15.47
71630;BMP280;59479;51.902;8.212;2023-05-10T06:34:22;100314.00;;;15.55
71630;BMP280;59479;51.902;8.212;2023-05-10T06:36:47;100306.19;;;15.62
71630;BMP280;59479;51.902;8.212;2023-05-10T06:39:12;100319.84;;;15.57
71630;BMP280;59479;51.902;8.212;2023-05-10T06:41:37;100316.38;;;15.61
71630;BMP280;59479;51.902;8.212;2023-05-10T06:44:03;100312.81;;;15.68
71630;BMP280;59479;51.902;8.212;2023-05-10T06:46:28;100307.06;;;15.63
71630;BMP280;59479;51.902;8.212;2023-05-10T06:48:54;100321.41;;;15.62
71630;BMP280;59479;51.902;8.212;2023-05-10T06:51:19;100323.19;;;15.59
71630;BMP280;59479;51.902;8.212;2023-05-10T06:53:46;100317.78;;;15.71
71630;BMP280;59479;51.902;8.212;2023-05-10T06:56:11;100319.53;;;15.69
71630;BMP280;59479;51.902;8.212;2023-05-10T06:58:36;100320.25;;;15.74
71630;BMP280;59479;51.902;8.212;2023-05-10T07:01:04;100320.38;;;15.69
71630;BMP280;59479;51.902;8.212;2023-05-10T07:03:30;100322.88;;;15.71
71630;BMP280;59479;51.902;8.212;2023-05-10T07:06:00;100331.31;;;15.71
71630;BMP280;59479;51.902;8.212;2023-05-10T07:08:28;100329.72;;;15.67
71630;BMP280;59479;51.902;8.212;2023-05-10T07:11:02;100333.84;;;15.71
71630;BMP280;59479;51.902;8.212;2023-05-10T07:13:29;100337.97;;;15.75
71630;BMP280;59479;51.902;8.212;2023-05-10T07:15:54;100338.94;;;15.70
71630;BMP280;59479;51.902;8.212;2023-05-10T07:18:20;100337.47;;;15.61
71630;BMP280;59479;51.902;8.212;2023-05-10T07:20:45;100343.13;;;15.71
71630;BMP280;59479;51.902;8.212;2023-05-10T07:23:10;100344.63;;;15.78
71630;BMP280;59479;51.902;8.212;2023-05-10T07:25:35;100338.72;;;15.79
71630;BMP280;59479;51.902;8.212;2023-05-10T07:28:01;100346.03;;;15.89
71630;BMP280;59479;51.902;8.212;2023-05-10T07:30:26;100339.19;;;15.93
71630;BMP280;59479;51.902;8.212;2023-05-10T07:32:51;100340.00;;;15.95
71630;BMP280;59479;51.902;8.212;2023-05-10T07:35:17;100340.06;;;15.92
71630;BMP280;59479;51.902;8.212;2023-05-10T07:37:42;100344.84;;;16.02
71630;BMP280;59479;51.902;8.212;2023-05-10T07:40:08;100350.63;;;16.07
71630;BMP280;59479;51.902;8.212;2023-05-10T07:42:33;100349.81;;;16.06
71630;BMP280;59479;51.902;8.212;2023-05-10T07:44:59;100349.00;;;16.04
71630;BMP280;59479;51.902;8.212;2023-05-10T07:47:24;100356.69;;;16.01
71630;BMP280;59479;51.902;8.212;2023-05-10T07:49:49;100347.31;;;16.05
71630;BMP280;59479;51.902;8.212;2023-05-10T07:52:15;100351.00;;;15.94
71630;BMP280;59479;51.902;8.212;2023-05-10T07:54:40;100347.47;;;15.99
71630;BMP280;59479;51.902;8.212;2023-05-10T07:57:05;100344.19;;;15.96
71630;BMP280;59479;51.902;8.212;2023-05-10T07:59:31;100349.28;;;15.94
71630;BMP280;59479;51.902;8.212;2023-05-10T08:01:57;100344.22;;;15.94
71630;BMP280;59479;51.902;8.212;2023-05-10T08:04:22;100351.06;;;15.91
71630;BMP280;59479;51.902;8.212;2023-05-10T08:06:47;100348.47;;;15.94
71630;BMP280;59479;51.902;8.212;2023-05-10T08:09:13;100356.13;;;15.91
71630;BMP280;59479;51.902;8.212;2023-05-10T08:11:38;100358.75;;;15.88
71630;BMP280;59479;51.902;8.212;2023-05-10T08:14:04;100367.94;;;15.92
71630;BMP280;59479;51.902;8.212;2023-05-10T08:16:29;100365.41;;;15.92
71630;BMP280;59479;51.902;8.212;2023-05-10T08:18:54;100371.06;;;16.01
71630;BMP280;59479;51.902;8.212;2023-05-10T08:21:20;100373.53;;;16.04
71630;BMP280;59479;51.902;8.212;2023-05-10T08:23:45;100375.16;;;16.06
71630;BMP280;59479;51.902;8.212;2023-05-10T08:26:11;100373.47;;;16.05
71630;BMP280;59479;51.902;8.212;2023-05-10T08:28:36;100371.66;;;16.10
71630;BMP280;59479;51.902;8.212;2023-05-10T08:31:01;100372.66;;;16.05
71630;BMP280;59479;51.902;8.212;2023-05-10T08:33:27;100371.16;;;15.98
71630;BMP280;59479;51.902;8.212;2023-05-10T08:35:52;100370.06;;;16.08
71630;BMP280;59479;51.902;8.212;2023-05-10T08:38:18;100374.16;;;16.12
71630;BMP280;59479;51.902;8.212;2023-05-10T08:40:43;100369.88;;;16.14
71630;BMP280;59479;51.902;8.212;2023-05-10T08:43:12;100374.78;;;16.21
71630;BMP280;59479;51.902;8.212;2023-05-10T08:45:42;100373.94;;;16.21
71630;BMP280;59479;51.902;8.212;2023-05-10T08:48:09;100373.13;;;16.20
71630;BMP280;59479;51.902;8.212;2023-05-10T08:50:44;100388.81;;;16.33
71630;BMP280;59479;51.902;8.212;2023-05-10T08:53:12;100385.47;;;16.32
71630;BMP280;59479;51.902;8.212;2023-05-10T08:55:38;100395.91;;;16.22
71630;BMP280;59479;51.902;8.212;2023-05-10T08:58:06;100391.50;;;16.28
71630;BMP280;59479;51.902;8.212;2023-05-10T09:00:32;100391.50;;;16.28
71630;BMP280;59479;51.902;8.212;2023-05-10T09:02:58;100396.63;;;16.27
71630;BMP280;59479;51.902;8.212;2023-05-10T09:05:23;100396.31;;;16.37
71630;BMP280;59479;51.902;8.212;2023-05-10T09:07:49;100401.34;;;16.39
71630;BMP280;59479;51.902;8.212;2023-05-10T09:10:14;100399.56;;;16.42
71630;BMP280;59479;51.902;8.212;2023-05-10T09:12:40;100400.31;;;16.45
71630;BMP280;59479;51.902;8.212;2023-05-10T09:15:09;100400.97;;;16.52
71630;BMP280;59479;51.902;8.212;2023-05-10T09:17:35;100395.88;;;16.53
71630;BMP280;59479;51.902;8.212;2023-05-10T09:20:04;100401.69;;;16.57
71630;BMP280;59479;51.902;8.212;2023-05-10T09:22:30;100398.06;;;16.65
71630;BMP280;59479;51.902;8.212;2023-05-10T09:27:32;100395.88;;;16.82
71630;BMP280;59479;51.902;8.212;2023-05-10T09:29:57;100405.81;;;16.89
71630;BMP280;59479;51.902;8.212;2023-05-10T09:32:36;100412.94;;;17.06
71630;BMP280;59479;51.902;8.212;2023-05-10T09:35:18;100412.97;;;17.04
71630;BMP280;59479;51.902;8.212;2023-05-10T09:37:46;100419.66;;;17.08
71630;BMP280;59479;51.902;8.212;2023-05-10T09:42:51;100406.31;;;17.29
71630;BMP280;59479;51.902;8.212;2023-05-10T09:45:16;100412.69;;;17.42
71630;BMP280;59479;51.902;8.212;2023-05-10T09:47:42;100401.75;;;17.40
71630;BMP280;59479;51.902;8.212;2023-05-10T09:50:07;100408.25;;;17.48
71630;BMP280;59479;51.902;8.212;2023-05-10T09:52:51;100414.94;;;17.51
71630;BMP280;59479;51.902;8.212;2023-05-10T09:55:19;100416.56;;;17.53
71630;BMP280;59479;51.902;8.212;2023-05-10T09:57:46;100405.47;;;17.56
71630;BMP280;59479;51.902;8.212;2023-05-10T10:00:19;100410.31;;;17.63
71630;BMP280;59479;51.902;8.212;2023-05-10T10:02:58;100410.84;;;17.72
71630;BMP280;59479;51.902;8.212;2023-05-10T10:05:31;100406.00;;;17.91
71630;BMP280;59479;51.902;8.212;2023-05-10T10:07:58;100401.25;;;18.06
71630;BMP280;59479;51.902;8.212;2023-05-10T10:10:25;100408.56;;;18.16
71630;BMP280;59479;51.902;8.212;2023-05-10T10:12:51;100399.00;;;18.23
71630;BMP280;59479;51.902;8.212;2023-05-10T10:15:16;100404.53;;;18.34
71630;BMP280;59479;51.902;8.212;2023-05-10T10:17:43;100396.22;;;18.29
71630;BMP280;59479;51.902;8.212;2023-05-10T10:20:08;100404.44;;;18.37
71630;BMP280;59479;51.902;8.212;2023-05-10T10:22:34;100392.00;;;18.52
71630;BMP280;59479;51.902;8.212;2023-05-10T10:25:00;100401.00;;;18.60
71630;BMP280;59479;51.902;8.212;2023-05-10T10:27:36;100396.09;;;18.56
71630;BMP280;59479;51.902;8.212;2023-05-10T10:35:31;100395.00;;;18.63
71630;BMP280;59479;51.902;8.212;2023-05-10T10:37:57;100404.84;;;18.72
71630;BMP280;59479;51.902;8.212;2023-05-10T10:40:23;100400.56;;;18.72
71630;BMP280;59479;51.902;8.212;2023-05-10T10:42:49;100396.13;;;18.77
71630;BMP280;59479;51.902;8.212;2023-05-10T10:45:19;100399.84;;;18.69
71630;BMP280;59479;51.902;8.212;2023-05-10T10:47:45;100406.38;;;18.76
71630;BMP280;59479;51.902;8.212;2023-05-10T10:50:10;100396.03;;;18.80
71630;BMP280;59479;51.902;8.212;2023-05-10T10:52:43;100397.91;;;18.75
71630;BMP280;59479;51.902;8.212;2023-05-10T11:00:33;100395.94;;;18.83
71630;BMP280;59479;51.902;8.212;2023-05-10T11:03:08;100391.41;;;18.91
71630;BMP280;59479;51.902;8.212;2023-05-10T11:08:28;100397.91;;;18.98
71630;BMP280;59479;51.902;8.212;2023-05-10T11:11:20;100405.41;;;19.02
71630;BMP280;59479;51.902;8.212;2023-05-10T11:13:46;100405.66;;;18.95
71630;BMP280;59479;51.902;8.212;2023-05-10T11:16:17;100422.94;;;18.64
71630;BMP280;59479;51.902;8.212;2023-05-10T11:19:03;100425.31;;;18.69
71630;BMP280;59479;51.902;8.212;2023-05-10T11:21:31;100429.91;;;18.59
71630;BMP280;59479;51.902;8.212;2023-05-10T11:23:57;100423.63;;;18.45
71630;BMP280;59479;51.902;8.212;2023-05-10T11:26:30;100427.00;;;18.46
71630;BMP280;59479;51.902;8.212;2023-05-10T11:28:56;100426.81;;;18.52
71630;BMP280;59479;51.902;8.212;2023-05-10T11:31:22;100433.47;;;18.54
71630;BMP280;59479;51.902;8.212;2023-05-10T11:33:53;100424.28;;;18.74
71630;BMP280;59479;51.902;8.212;2023-05-10T11:36:26;100425.72;;;18.81
71630;BMP280;59479;51.902;8.212;2023-05-10T11:38:52;100429.03;;;18.83
71630;BMP280;59479;51.902;8.212;2023-05-10T11:41:19;100444.25;;;18.85
71630;BMP280;59479;51.902;8.212;2023-05-10T11:43:50;100441.03;;;18.80
71630;BMP280;59479;51.902;8.212;2023-05-10T11:46:16;100448.13;;;18.72
71630;BMP280;59479;51.902;8.212;2023-05-10T11:48:43;100446.41;;;18.72
71630;BMP280;59479;51.902;8.212;2023-05-10T11:51:10;100441.97;;;18.77
71630;BMP280;59479;51.902;8.212;2023-05-10T11:53:36;100453.13;;;18.75
71630;BMP280;59479;51.902;8.212;2023-05-10T11:56:08;100461.84;;;18.68
71630;BMP280;59479;51.902;8.212;2023-05-10T11:58:35;100456.28;;;18.57
71630;BMP280;59479;51.902;8.212;2023-05-10T12:01:01;100464.69;;;18.59
71630;BMP280;59479;51.902;8.212;2023-05-10T12:03:28;100462.00;;;18.63
71630;BMP280;59479;51.902;8.212;2023-05-10T12:05:55;100466.66;;;18.75
71630;BMP280;59479;51.902;8.212;2023-05-10T12:08:23;100453.94;;;18.75
71630;BMP280;59479;51.902;8.212;2023-05-10T12:10:48;100458.16;;;18.76
71630;BMP280;59479;51.902;8.212;2023-05-10T12:13:14;100455.66;;;18.75
71630;BMP280;59479;51.902;8.212;2023-05-10T12:15:40;100448.06;;;18.73
71630;BMP280;59479;51.902;8.212;2023-05-10T12:18:09;100442.63;;;18.82
71630;BMP280;59479;51.902;8.212;2023-05-10T12:20:35;100451.03;;;18.84
71630;BMP280;59479;51.902;8.212;2023-05-10T12:23:01;100459.44;;;18.88
71630;BMP280;59479;51.902;8.212;2023-05-10T12:25:33;100452.50;;;18.91
71630;BMP280;59479;51.902;8.212;2023-05-10T12:28:00;100454.03;;;18.95
71630;BMP280;59479;51.902;8.212;2023-05-10T12:30:29;100454.75;;;18.98
71630;BMP280;59479;51.902;8.212;2023-05-10T12:33:02;100460.97;;;18.92
71630;BMP280;59479;51.902;8.212;2023-05-10T12:35:32;100462.69;;;18.91
71630;BMP280;59479;51.902;8.212;2023-05-10T12:37:58;100460.88;;;18.94
71630;BMP280;59479;51.902;8.212;2023-05-10T12:40:23;100456.94;;;19.09
71630;BMP280;59479;51.902;8.212;2023-05-10T12:42:49;100450.97;;;19.10
71630;BMP280;59479;51.902;8.212;2023-05-10T12:45:14;100456.06;;;19.10
71630;BMP280;59479;51.902;8.212;2023-05-10T12:47:39;100472.69;;;18.95
71630;BMP280;59479;51.902;8.212;2023-05-10T12:50:05;100484.22;;;18.83
71630;BMP280;59479;51.902;8.212;2023-05-10T12:52:31;100486.47;;;18.67
71630;BMP280;59479;51.902;8.212;2023-05-10T12:55:00;100492.22;;;18.72
71630;BMP280;59479;51.902;8.212;2023-05-10T12:57:26;100501.06;;;18.62
71630;BMP280;59479;51.902;8.212;2023-05-10T12:59:52;100495.28;;;18.57
71630;BMP280;59479;51.902;8.212;2023-05-10T13:02:17;100514.97;;;18.52
71630;BMP280;59479;51.902;8.212;2023-05-10T13:04:46;100517.06;;;18.42
71630;BMP280;59479;51.902;8.212;2023-05-10T13:07:12;100519.13;;;18.31
71630;BMP280;59479;51.902;8.212;2023-05-10T13:09:37;100522.84;;;18.21
71630;BMP280;59479;51.902;8.212;2023-05-10T13:12:03;100524.13;;;18.34
71630;BMP280;59479;51.902;8.212;2023-05-10T13:14:29;100516.97;;;18.45
71630;BMP280;59479;51.902;8.212;2023-05-10T13:16:55;100512.81;;;18.42
71630;BMP280;59479;51.902;8.212;2023-05-10T13:19:20;100512.66;;;18.47
71630;BMP280;59479;51.902;8.212;2023-05-10T13:21:46;100511.97;;;18.42
71630;BMP280;59479;51.902;8.212;2023-05-10T13:24:11;100504.66;;;18.57
71630;BMP280;59479;51.902;8.212;2023-05-10T13:26:41;100500.19;;;18.39
71630;BMP280;59479;51.902;8.212;2023-05-10T13:29:07;100514.38;;;18.46
71630;BMP280;59479;51.902;8.212;2023-05-10T13:31:33;100493.13;;;18.47
71630;BMP280;59479;51.902;8.212;2023-05-10T13:33:58;100499.59;;;18.55
71630;BMP280;59479;51.902;8.212;2023-05-10T13:36:23;100508.34;;;18.49
71630;BMP280;59479;51.902;8.212;2023-05-10T13:38:49;100501.28;;;18.56
71630;BMP280;59479;51.902;8.212;2023-05-10T13:41:14;100505.19;;;18.66
71630;BMP280;59479;51.902;8.212;2023-05-10T13:43:39;100505.75;;;18.74
71630;BMP280;59479;51.902;8.212;2023-05-10T13:46:05;100501.72;;;18.92
71630;BMP280;59479;51.902;8.212;2023-05-10T13:48:30;100499.28;;;18.89
71630;BMP280;59479;51.902;8.212;2023-05-10T13:50:56;100509.91;;;19.01
71630;BMP280;59479;51.902;8.212;2023-05-10T13:53:21;100512.53;;;18.98
71630;BMP280;59479;51.902;8.212;2023-05-10T13:55:47;100508.31;;;18.97
71630;BMP280;59479;51.902;8.212;2023-05-10T13:58:12;100515.78;;;19.03
71630;BMP280;59479;51.902;8.212;2023-05-10T14:00:37;100520.25;;;18.95
71630;BMP280;59479;51.902;8.212;2023-05-10T14:03:03;100508.34;;;19.20
71630;BMP280;59479;51.902;8.212;2023-05-10T14:05:29;100521.47;;;19.32
71630;BMP280;59479;51.902;8.212;2023-05-10T14:07:55;100510.44;;;19.32
71630;BMP280;59479;51.902;8.212;2023-05-10T14:10:20;100511.81;;;19.40
71630;BMP280;59479;51.902;8.212;2023-05-10T14:12:46;100503.16;;;19.44
71630;BMP280;59479;51.902;8.212;2023-05-10T14:15:11;100504.88;;;19.43
71630;BMP280;59479;51.902;8.212;2023-05-10T14:17:37;100507.53;;;19.40
71630;BMP280;59479;51.902;8.212;2023-05-10T14:20:02;100509.97;;;19.43
71630;BMP280;59479;51.902;8.212;2023-05-10T14:22:29;100511.25;;;19.55
71630;BMP280;59479;51.902;8.212;2023-05-10T14:24:54;100507.41;;;19.66
71630;BMP280;59479;51.902;8.212;2023-05-10T14:27:20;100496.00;;;19.75